Time;durP1;ratioP1;P1;durP2;ratioP2;P2;SDS_P1;SDS_P2;PMS_P1;PMS_P2;Temp;Humidity;BMP_temperature;BMP_pressure;BME280_temperature;BME280_humidity;BME280_pressure;Samples;Min_cycle;Max_cycle;Signal;HPM_P1;HPM_P2
2022/05/03 00:00:49;;;;;;;9.47;5.80;;;;;;;10.53;100.00;94531.91;5024428;28;20861;-82
2022/05/03 00:03:23;;;;;;;6.60;5.40;;;;;;;10.60;100.00;94530.00;5025415;28;20202;-81
2022/05/03 00:06:01;;;;;;;8.40;5.63;;;;;;;10.59;100.00;94510.19;5025003;28;20264;-82
2022/05/03 00:08:38;;;;;;;6.53;5.40;;;;;;;10.66;100.00;94528.31;5019223;28;20245;-82
2022/05/03 00:11:10;;;;;;;8.63;5.17;;;;;;;10.66;100.00;94523.91;5022810;28;20653;-82
2022/05/03 00:13:47;;;;;;;7.03;5.30;;;;;;;10.64;100.00;94525.16;5024034;28;20276;-82
2022/05/03 00:16:14;;;;;;;7.13;5.73;;;;;;;10.52;100.00;94508.72;5023476;28;20213;-81
2022/05/03 00:18:42;;;;;;;7.03;5.77;;;;;;;10.48;100.00;94521.34;5023268;28;20198;-81
2022/05/03 00:21:10;;;;;;;6.20;5.07;;;;;;;10.41;100.00;94525.06;5026628;28;20224;-81
2022/05/03 00:23:37;;;;;;;7.50;5.33;;;;;;;10.33;100.00;94520.19;5027608;28;20696;-81
2022/05/03 00:26:06;;;;;;;7.53;5.10;;;;;;;10.35;100.00;94513.75;5027742;28;20199;-82
2022/05/03 00:28:33;;;;;;;7.27;5.30;;;;;;;10.35;100.00;94518.94;5028472;28;21433;-83
2022/05/03 00:31:02;;;;;;;8.47;5.33;;;;;;;10.42;100.00;94524.81;5028496;28;20654;-83
2022/05/03 00:33:33;;;;;;;9.07;4.67;;;;;;;10.51;100.00;94520.91;5023253;28;20209;-81
2022/05/03 00:36:00;;;;;;;6.07;5.17;;;;;;;10.61;100.00;94523.00;5021093;28;20261;-79
2022/05/03 00:38:27;;;;;;;8.70;5.60;;;;;;;10.49;100.00;94514.34;5020915;28;20215;-79
2022/05/03 00:41:00;;;;;;;6.80;4.90;;;;;;;10.43;100.00;94526.41;5023482;28;20209;-80
2022/05/03 00:43:36;;;;;;;8.17;5.50;;;;;;;10.28;100.00;94515.63;5024121;28;20210;-81
2022/05/03 00:46:08;;;;;;;7.47;5.70;;;;;;;10.29;100.00;94516.41;5023956;28;20210;-80
2022/05/03 00:49:01;;;;;;;6.03;5.27;;;;;;;9.94;100.00;94513.59;5023462;28;20205;-79
2022/05/03 00:51:35;;;;;;;8.27;5.23;;;;;;;9.75;100.00;94514.63;5022657;28;20320;-79
2022/05/03 00:54:13;;;;;;;7.63;6.27;;;;;;;9.60;100.00;94513.19;5022115;28;20195;-78
2022/05/03 00:56:51;;;;;;;8.47;6.27;;;;;;;9.61;100.00;94509.56;5020872;28;20751;-79
2022/05/03 00:59:33;;;;;;;5.80;5.10;;;;;;;9.68;100.00;94506.91;5023208;28;20210;-79
2022/05/03 01:02:06;;;;;;;7.70;5.40;;;;;;;9.78;100.00;94514.19;5021324;28;20198;-79
2022/05/03 01:04:40;;;;;;;9.47;5.70;;;;;;;9.80;100.00;94510.38;5020948;28;20253;-79
2022/05/03 01:07:22;;;;;;;6.90;5.90;;;;;;;10.00;100.00;94516.13;5022539;28;20210;-78
2022/05/03 01:10:00;;;;;;;8.57;6.03;;;;;;;10.11;100.00;94510.22;5024424;28;20210;-78
2022/05/03 01:12:32;;;;;;;6.33;5.20;;;;;;;10.07;100.00;94503.09;5022024;28;20611;-77
2022/05/03 01:15:08;;;;;;;7.87;5.80;;;;;;;10.07;100.00;94503.84;5019004;28;20208;-78
2022/05/03 01:17:44;;;;;;;6.67;5.53;;;;;;;10.13;100.00;94508.22;5021087;28;20198;-78
2022/05/03 01:20:14;;;;;;;7.77;5.70;;;;;;;10.21;100.00;94504.53;5021111;28;20293;-79
2022/05/03 01:23:16;;;;;;;7.40;5.50;;;;;;;10.11;100.00;94499.03;5022289;28;20210;-79
2022/05/03 01:26:04;;;;;;;10.77;5.40;;;;;;;10.09;100.00;94501.84;5024048;28;20234;-80
2022/05/03 01:28:32;;;;;;;6.10;5.17;;;;;;;10.04;100.00;94498.31;5023106;28;20209;-79
2022/05/03 01:31:05;;;;;;;6.63;4.83;;;;;;;10.08;100.00;94499.47;5024298;28;20203;-80
2022/05/03 01:33:34;;;;;;;5.60;4.93;;;;;;;10.10;100.00;94490.44;5021948;28;20301;-80
2022/05/03 01:36:04;;;;;;;6.30;4.83;;;;;;;10.09;100.00;94491.47;5018567;28;20203;-81
2022/05/03 01:38:43;;;;;;;6.17;4.70;;;;;;;10.12;100.00;94485.84;5020679;28;20253;-81
2022/05/03 01:41:20;;;;;;;8.17;4.90;;;;;;;10.06;100.00;94485.91;5025860;28;20202;-81
2022/05/03 01:44:10;;;;;;;6.63;5.03;;;;;;;9.87;100.00;94468.78;5022559;28;20665;-81
2022/05/03 01:46:39;;;;;;;6.40;4.80;;;;;;;10.01;100.00;94476.19;5025501;28;20237;-81
2022/05/03 01:52:20;;;;;;;5.70;5.10;;;;;;;10.01;100.00;94473.59;5021717;28;20325;-80
2022/05/03 01:55:08;;;;;;;5.87;4.70;;;;;;;10.06;100.00;94480.72;5022325;28;20202;-80
2022/05/03 01:57:46;;;;;;;5.73;4.90;;;;;;;10.07;100.00;94477.88;5020621;28;20210;-80
2022/05/03 02:00:13;;;;;;;7.43;4.77;;;;;;;9.95;100.00;94471.88;5024781;28;20564;-79
2022/05/03 02:02:54;;;;;;;8.07;5.10;;;;;;;9.92;100.00;94474.09;5023156;28;20207;-79
2022/05/03 02:05:37;;;;;;;6.47;5.30;;;;;;;9.89;100.00;94477.13;5020054;28;20237;-81
2022/05/03 02:08:05;;;;;;;6.17;4.73;;;;;;;9.72;100.00;94460.56;5022844;28;20282;-80
2022/05/03 02:11:03;;;;;;;5.70;5.00;;;;;;;9.89;100.00;94479.72;5021419;28;20199;-83
2022/05/03 02:17:00;;;;;;;6.47;5.43;;;;;;;9.97;100.00;94469.84;5024957;28;20213;-80
2022/05/03 02:19:54;;;;;;;6.27;5.60;;;;;;;9.92;100.00;94466.31;5024280;28;20214;-80
2022/05/03 02:22:32;;;;;;;7.70;5.97;;;;;;;9.97;100.00;94472.44;5023029;28;20274;-81
2022/05/03 02:25:08;;;;;;;7.07;6.00;;;;;;;9.89;100.00;94458.97;5020223;28;20231;-80
2022/05/03 02:27:39;;;;;;;8.40;6.10;;;;;;;9.77;100.00;94469.28;5021384;28;20294;-81
2022/05/03 02:30:09;;;;;;;9.33;6.37;;;;;;;9.44;100.00;94461.84;5024815;28;20234;-80
2022/05/03 02:32:45;;;;;;;8.60;6.30;;;;;;;9.22;100.00;94465.88;5019917;28;20195;-81
2022/05/03 02:35:20;;;;;;;7.53;6.30;;;;;;;9.21;100.00;94466.06;5023143;28;20210;-78
2022/05/03 02:37:49;;;;;;;8.83;6.77;;;;;;;9.35;100.00;94455.34;5019945;28;20331;-79
2022/05/03 02:40:19;;;;;;;7.43;6.60;;;;;;;9.44;100.00;94459.25;5020104;28;20253;-79
2022/05/03 02:42:46;;;;;;;6.90;6.20;;;;;;;9.53;100.00;94467.53;5020786;28;20202;-78
2022/05/03 02:45:15;;;;;;;7.30;6.30;;;;;;;9.63;100.00;94460.06;5021804;28;20210;-78
2022/05/03 02:47:51;;;;;;;12.37;6.47;;;;;;;9.72;100.00;94453.59;5017508;28;20299;-79
2022/05/03 02:50:21;;;;;;;7.10;6.37;;;;;;;9.83;100.00;94458.03;5018545;28;20191;-80
2022/05/03 02:52:56;;;;;;;7.37;6.10;;;;;;;9.85;100.00;94456.00;5021740;28;20665;-78
2022/05/03 02:55:31;;;;;;;8.30;6.23;;;;;;;9.93;100.00;94460.09;5021560;28;20194;-81
2022/05/03 02:58:06;;;;;;;7.70;6.10;;;;;;;9.99;100.00;94462.63;5025497;28;20625;-81
2022/05/03 03:03:49;;;;;;;7.63;5.93;;;;;;;10.01;100.00;94454.63;5015393;28;20294;-81
2022/05/03 03:06:22;;;;;;;6.77;6.03;;;;;;;9.97;100.00;94464.66;5018430;28;20286;-79
2022/05/03 03:08:52;;;;;;;6.70;6.00;;;;;;;9.95;100.00;94464.09;5017261;28;20191;-80
2022/05/03 03:11:30;;;;;;;7.00;5.87;;;;;;;9.97;100.00;94464.66;5024592;28;20283;-81
2022/05/03 03:14:08;;;;;;;7.80;5.83;;;;;;;9.96;100.00;94465.66;5019089;28;20283;-80
2022/05/03 03:16:47;;;;;;;7.50;6.50;;;;;;;9.86;100.00;94460.19;5017876;28;20700;-80
2022/05/03 03:19:33;;;;;;;8.20;5.53;;;;;;;9.85;100.00;94468.19;5020354;28;20226;-80
2022/05/03 03:22:02;;;;;;;7.67;6.37;;;;;;;9.88;100.00;94470.34;5016551;28;20196;-80
2022/05/03 03:24:30;;;;;;;7.83;5.83;;;;;;;9.86;100.00;94462.00;5018715;28;20222;-80
2022/05/03 03:27:00;;;;;;;9.77;6.13;;;;;;;9.83;100.00;94458.03;5019625;28;20237;-79
2022/05/03 03:29:30;;;;;;;8.43;6.00;;;;;;;9.89;100.00;94462.38;5016754;28;20281;-80
2022/05/03 03:32:00;;;;;;;7.30;6.13;;;;;;;9.93;100.00;94462.69;5021467;28;20205;-80
2022/05/03 03:34:29;;;;;;;7.57;6.40;;;;;;;9.86;100.00;94464.59;5014914;28;20225;-79
2022/05/03 03:37:01;;;;;;;8.07;5.97;;;;;;;9.98;100.00;94471.44;5022884;28;20201;-78
2022/05/03 03:39:31;;;;;;;8.70;6.00;;;;;;;9.98;100.00;94471.44;5018907;28;20678;-79
2022/05/03 03:42:01;;;;;;;6.90;5.83;;;;;;;9.96;100.00;94457.06;5017519;28;20215;-78
2022/05/03 03:44:29;;;;;;;9.10;5.90;;;;;;;9.88;100.00;94463.38;5017068;28;20198;-78
2022/05/03 03:46:56;;;;;;;6.87;5.97;;;;;;;9.94;100.00;94474.69;5018450;28;20203;-78
2022/05/03 03:49:23;;;;;;;7.27;6.13;;;;;;;9.97;100.00;94463.84;5017815;28;20198;-81
2022/05/03 03:51:51;;;;;;;8.37;6.10;;;;;;;10.06;100.00;94478.94;5019419;28;20187;-71
2022/05/03 03:54:19;;;;;;;7.73;5.83;;;;;;;10.06;100.00;94481.53;5017007;28;20201;-72
2022/05/03 03:56:48;;;;;;;7.00;6.07;;;;;;;10.03;100.00;94481.97;5015980;28;20214;-71
2022/05/03 03:59:15;;;;;;;8.93;6.47;;;;;;;10.00;100.00;94479.00;5024352;28;20219;-72
2022/05/03 04:01:44;;;;;;;6.57;5.67;;;;;;;10.03;100.00;94478.56;5019379;28;20199;-72
2022/05/03 04:04:12;;;;;;;8.00;6.10;;;;;;;9.85;100.00;94476.78;5020112;28;20242;-71
2022/05/03 04:06:39;;;;;;;8.73;6.53;;;;;;;9.61;100.00;94475.03;5018336;28;21041;-71
2022/05/03 04:09:06;;;;;;;8.73;6.30;;;;;;;9.43;100.00;94483.63;5017743;28;20211;-70
2022/05/03 04:11:43;;;;;;;8.77;6.57;;;;;;;9.50;100.00;94481.75;5018577;28;20200;-72
2022/05/03 04:14:11;;;;;;;8.67;6.63;;;;;;;9.57;100.00;94468.72;5018534;28;20776;-72
2022/05/03 04:16:38;;;;;;;10.97;7.33;;;;;;;9.70;100.00;94474.53;5021673;28;20585;-72
2022/05/03 04:19:05;;;;;;;8.70;6.60;;;;;;;9.83;100.00;94483.19;5017527;28;20682;-72
2022/05/03 04:21:32;;;;;;;9.03;6.37;;;;;;;9.93;100.00;94486.84;5021842;28;20199;-72
2022/05/03 04:24:00;;;;;;;7.90;6.43;;;;;;;9.96;100.00;94486.41;5008676;28;20230;-71
2022/05/03 04:26:28;;;;;;;8.90;6.80;;;;;;;10.08;100.00;94491.66;5013725;28;20196;-71
2022/05/03 04:28:57;;;;;;;8.10;6.33;;;;;;;10.05;100.00;94486.91;5011226;28;20214;-73
2022/05/03 04:31:46;;;;;;;8.47;6.13;;;;;;;10.16;100.00;94494.78;5021707;28;20582;-72
2022/05/03 04:34:13;;;;;;;7.20;6.17;;;;;;;10.36;100.00;94496.34;5019932;28;20210;-71
2022/05/03 04:36:40;;;;;;;8.23;5.97;;;;;;;10.40;100.00;94505.28;5020395;28;20210;-71
2022/05/03 04:39:07;;;;;;;7.60;6.07;;;;;;;10.39;100.00;94488.91;5022244;28;20223;-71
2022/05/03 04:41:34;;;;;;;8.43;6.33;;;;;;;10.48;100.00;94497.16;5016362;28;20310;-72
2022/05/03 04:44:01;;;;;;;8.03;6.50;;;;;;;10.40;100.00;94495.69;5021341;28;20565;-72
2022/05/03 04:46:27;;;;;;;7.73;6.00;;;;;;;10.40;100.00;94497.47;5018206;28;20192;-71
2022/05/03 04:48:56;;;;;;;10.57;6.40;;;;;;;10.42;100.00;94504.03;5019518;28;20195;-72
2022/05/03 04:51:25;;;;;;;7.83;6.10;;;;;;;10.29;100.00;94506.03;5013428;28;20195;-71
2022/05/03 04:53:52;;;;;;;8.10;5.83;;;;;;;10.22;100.00;94500.91;5021097;28;20662;-70
2022/05/03 04:56:22;;;;;;;7.97;6.23;;;;;;;10.26;100.00;94496.88;5017225;28;20266;-72
2022/05/03 04:58:50;;;;;;;9.63;6.23;;;;;;;10.31;100.00;94498.81;5023153;28;20881;-71
2022/05/03 05:01:18;;;;;;;6.80;5.23;;;;;;;10.26;100.00;94499.47;5019000;28;20207;-71
2022/05/03 05:03:45;;;;;;;7.40;5.57;;;;;;;10.15;100.00;94500.22;5020421;28;20335;-71
2022/05/03 05:06:13;;;;;;;5.67;4.80;;;;;;;10.11;100.00;94499.03;5020713;28;20203;-71
2022/05/03 05:08:42;;;;;;;6.83;5.90;;;;;;;10.19;100.00;94501.34;5024287;28;20211;-70
2022/05/03 05:11:09;;;;;;;6.30;5.37;;;;;;;10.27;100.00;94501.06;5023007;28;20210;-77
2022/05/03 05:13:37;;;;;;;6.80;4.97;;;;;;;10.40;100.00;94503.47;5025663;28;20227;-71
2022/05/03 05:16:04;;;;;;;6.27;4.90;;;;;;;10.43;100.00;94500.44;5025409;28;20201;-71
2022/05/03 05:18:31;;;;;;;5.47;4.70;;;;;;;10.37;100.00;94505.72;5023795;28;20233;-70
2022/05/03 05:20:58;;;;;;;6.83;4.90;;;;;;;10.38;100.00;94504.72;5026230;28;20199;-70
2022/05/03 05:23:26;;;;;;;9.30;6.20;;;;;;;10.39;100.00;94506.31;5020564;28;20196;-71
2022/05/03 05:25:54;;;;;;;6.37;4.97;;;;;;;10.55;99.69;94498.69;5023616;28;20226;-70
2022/05/03 05:28:22;;;;;;;7.83;4.77;;;;;;;10.59;99.03;94505.00;5019214;28;20191;-71
2022/05/03 05:30:51;;;;;;;8.07;5.07;;;;;;;10.63;97.83;94500.16;5020044;28;20222;-71
2022/05/03 05:33:18;;;;;;;10.23;5.10;;;;;;;10.54;100.00;94504.88;5019344;28;20221;-71
2022/05/03 05:35:45;;;;;;;5.53;4.20;;;;;;;10.59;97.96;94499.81;5026327;28;20934;-71
2022/05/03 05:38:14;;;;;;;7.23;4.97;;;;;;;10.65;97.42;94504.13;5019235;28;20226;-72
2022/05/03 05:40:43;;;;;;;6.83;5.00;;;;;;;10.70;96.74;94503.47;5022271;28;20764;-71
2022/05/03 05:43:10;;;;;;;8.10;4.73;;;;;;;10.79;96.44;94515.16;5024072;28;20199;-72
2022/05/03 05:45:38;;;;;;;10.97;5.00;;;;;;;10.83;95.05;94509.25;5023504;28;20677;-71
2022/05/03 05:48:05;;;;;;;15.47;5.67;;;;;;;10.92;92.94;94516.75;5022425;28;20230;-71
2022/05/03 05:50:33;;;;;;;6.93;4.97;;;;;;;10.77;93.47;94519.75;5020726;28;20199;-71
2022/05/03 05:55:45;;;;;;;6.50;4.27;;;;;;;10.89;91.91;94532.78;5021036;28;20202;-71
2022/05/03 05:58:12;;;;;;;6.50;4.80;;;;;;;10.89;93.77;94533.56;5025538;28;20297;-73
2022/05/03 06:00:39;;;;;;;8.57;4.20;;;;;;;11.00;91.37;94534.59;5027568;28;20202;-71
2022/05/03 06:03:06;;;;;;;4.43;4.00;;;;;;;11.15;90.06;94540.19;5023197;28;20210;-72
2022/05/03 06:05:33;;;;;;;9.80;4.20;;;;;;;11.15;90.00;94540.19;5023481;28;20204;-71
2022/05/03 06:08:00;;;;;;;4.50;3.77;;;;;;;11.21;86.94;94545.28;5020794;28;20202;-71
2022/05/03 06:10:28;;;;;;;8.97;3.70;;;;;;;11.23;87.71;94551.06;5018144;28;20203;-71
2022/05/03 06:12:56;;;;;;;4.43;3.37;;;;;;;11.19;85.42;94549.94;5019410;28;20294;-71
2022/05/03 06:15:23;;;;;;;5.37;3.70;;;;;;;11.05;87.14;94542.56;5020470;28;20674;-84
2022/05/03 06:17:50;;;;;;;4.17;3.70;;;;;;;11.16;86.20;94555.59;5024298;28;20615;-81
2022/05/03 06:20:17;;;;;;;8.17;4.27;;;;;;;11.21;85.52;94563.50;5026381;28;20227;-79
2022/05/03 06:22:44;;;;;;;7.53;3.83;;;;;;;11.38;86.02;94561.03;5023578;28;20198;-80
2022/05/03 06:25:11;;;;;;;9.60;3.73;;;;;;;11.53;85.93;94558.78;5029577;28;20318;-81
2022/05/03 06:27:40;;;;;;;11.47;3.97;;;;;;;11.60;85.88;94563.88;5028025;28;20203;-82
2022/05/03 06:30:09;;;;;;;5.87;3.50;;;;;;;11.69;84.51;94557.31;5028229;28;20285;-78
2022/05/03 06:32:43;;;;;;;3.93;3.40;;;;;;;11.79;85.00;94560.19;5020289;28;20203;-79
2022/05/03 06:35:12;;;;;;;7.10;3.70;;;;;;;11.82;82.84;94575.34;5026200;28;20654;-79
2022/05/03 06:37:41;;;;;;;4.20;3.50;;;;;;;11.87;83.99;94568.44;5018994;28;20579;-80
2022/05/03 06:40:09;;;;;;;6.77;3.67;;;;;;;12.06;82.97;94574.31;5022987;28;20226;-79
2022/05/03 06:42:38;;;;;;;7.00;4.00;;;;;;;12.08;83.28;94574.06;5023412;28;20239;-76
2022/05/03 06:45:06;;;;;;;5.20;4.00;;;;;;;11.97;83.24;94574.88;5024671;28;20218;-81
2022/05/03 06:47:36;;;;;;;4.63;3.70;;;;;;;11.69;84.64;94578.13;5025487;28;20226;-85
2022/05/03 06:50:03;;;;;;;5.57;4.10;;;;;;;11.44;85.19;94577.56;5023869;28;20200;-82
2022/05/03 06:52:30;;;;;;;6.77;4.43;;;;;;;11.40;89.03;94579.81;5030308;28;20218;-83
2022/05/03 06:54:56;;;;;;;6.13;4.40;;;;;;;11.44;87.51;94580.94;5013467;28;20221;-80
2022/05/03 06:57:23;;;;;;;9.73;4.40;;;;;;;11.55;85.52;94587.19;5022629;28;20204;-79
2022/05/03 06:59:50;;;;;;;8.33;4.07;;;;;;;11.71;84.68;94576.16;5026733;28;20242;-80
2022/05/03 07:02:17;;;;;;;5.97;3.97;;;;;;;11.79;85.41;94583.59;5020403;28;20207;-81
2022/05/03 07:04:46;;;;;;;6.67;4.50;;;;;;;11.91;85.10;94589.63;5024877;28;20203;-83
2022/05/03 07:07:14;;;;;;;7.20;4.03;;;;;;;12.01;83.59;94592.41;5014277;28;20191;-79
2022/05/03 07:09:43;;;;;;;6.30;3.90;;;;;;;12.15;83.61;94590.38;5019411;28;20215;-78
2022/05/03 07:12:12;;;;;;;7.23;4.10;;;;;;;12.16;82.47;94578.94;5020696;28;20758;-83
2022/05/03 07:14:39;;;;;;;10.40;4.33;;;;;;;12.22;82.91;94589.22;5019152;28;20257;-77
2022/05/03 07:17:06;;;;;;;6.00;4.33;;;;;;;12.25;83.82;94583.56;5023754;28;20679;-75
2022/05/03 07:25:04;;;;;;;8.30;4.00;;;;;;;12.63;83.11;94579.63;5019089;28;20245;-75
2022/05/03 07:27:30;;;;;;;8.43;4.47;;;;;;;12.69;83.31;94586.50;5021845;28;20206;-75
2022/05/03 07:29:57;;;;;;;8.77;4.23;;;;;;;12.73;84.20;94577.97;5018399;28;20216;-75
2022/05/03 07:32:24;;;;;;;7.63;4.33;;;;;;;12.71;81.23;94589.66;5018426;28;20646;-75
2022/05/03 07:34:52;;;;;;;7.67;4.20;;;;;;;12.77;81.17;94589.53;5018014;28;20218;-75
2022/05/03 07:37:20;;;;;;;16.17;4.20;;;;;;;12.78;81.30;94587.72;5017723;28;20675;-75
2022/05/03 07:39:47;;;;;;;7.13;4.20;;;;;;;12.89;81.16;94594.72;5017621;28;20219;-74
2022/05/03 07:42:14;;;;;;;8.83;4.60;;;;;;;12.91;81.52;94601.28;5014787;28;20857;-75
2022/05/03 07:44:40;;;;;;;5.43;4.03;;;;;;;12.75;82.96;94596.00;5017304;28;20191;-75
2022/05/03 07:47:07;;;;;;;6.70;4.70;;;;;;;12.72;83.21;94597.28;5018179;28;20270;-75
2022/05/03 07:49:34;;;;;;;6.73;4.40;;;;;;;12.64;83.33;94597.63;5020786;28;20199;-75
2022/05/03 07:52:01;;;;;;;8.23;5.30;;;;;;;12.66;83.76;94600.81;5019963;28;20194;-75
2022/05/03 07:54:29;;;;;;;10.90;5.13;;;;;;;12.60;83.99;94600.94;5015446;28;20198;-75
2022/05/03 07:56:57;;;;;;;7.83;4.60;;;;;;;12.65;84.12;94601.81;5019414;28;20203;-75
2022/05/03 07:59:25;;;;;;;9.07;5.13;;;;;;;12.66;83.26;94605.22;5019599;28;20215;-75
2022/05/03 08:01:52;;;;;;;6.63;4.60;;;;;;;12.71;83.01;94606.09;5019116;28;20199;-75
2022/05/03 08:04:19;;;;;;;10.30;4.50;;;;;;;12.71;82.78;94602.72;5018993;28;20202;-75
2022/05/03 08:06:46;;;;;;;8.77;4.60;;;;;;;12.55;82.48;94601.63;5018491;28;20237;-76
2022/05/03 08:09:19;;;;;;;8.10;4.30;;;;;;;12.49;82.16;94607.78;5018525;28;20296;-75
2022/05/03 08:11:47;;;;;;;8.87;4.07;;;;;;;12.49;82.93;94611.19;5018462;28;20589;-74
2022/05/03 08:14:14;;;;;;;11.57;4.20;;;;;;;12.48;84.05;94612.19;5019142;28;20257;-74
2022/05/03 08:16:41;;;;;;;8.50;4.47;;;;;;;12.45;83.45;94620.47;5019433;28;20316;-75
2022/05/03 08:19:08;;;;;;;5.80;4.07;;;;;;;12.31;84.26;94619.13;5018871;28;20223;-75
2022/05/03 08:21:35;;;;;;;6.67;4.50;;;;;;;12.33;84.58;94616.28;5017990;28;20575;-74
2022/05/03 08:24:02;;;;;;;6.37;4.43;;;;;;;12.31;84.37;94626.94;5019354;28;20246;-75
2022/05/03 08:26:31;;;;;;;7.67;4.03;;;;;;;12.46;84.58;94621.25;5018845;28;20202;-74
2022/05/03 08:28:59;;;;;;;6.10;4.10;;;;;;;12.47;84.58;94626.22;5019701;28;20266;-74
2022/05/03 08:31:26;;;;;;;5.50;3.93;;;;;;;12.58;83.35;94631.66;5018456;28;20731;-74
2022/05/03 08:33:53;;;;;;;5.67;3.90;;;;;;;12.74;82.43;94625.72;5018899;28;20709;-75
2022/05/03 08:36:20;;;;;;;4.80;3.77;;;;;;;12.67;82.68;94633.66;5018445;28;20206;-83
2022/05/03 08:44:26;;;;;;;9.40;3.93;;;;;;;12.75;83.02;94648.16;4999225;28;20627;-84
2022/05/03 08:46:55;;;;;;;5.07;3.70;;;;;;;12.66;82.60;94639.13;5021667;28;20690;-85
2022/05/03 08:49:24;;;;;;;7.70;3.50;;;;;;;12.65;82.13;94634.91;5024592;28;20207;-84
2022/05/03 08:51:53;;;;;;;5.40;3.47;;;;;;;12.84;81.05;94650.16;5023675;28;20192;-84
2022/05/03 08:54:21;;;;;;;5.30;3.37;;;;;;;12.88;80.41;94640.06;5023787;28;20206;-77
2022/05/03 08:56:48;;;;;;;6.40;3.47;;;;;;;13.06;81.17;94650.34;5021193;28;20718;-79
2022/05/03 08:59:15;;;;;;;4.87;3.00;;;;;;;13.19;80.00;94649.31;5024337;28;20218;-80
2022/05/03 09:01:43;;;;;;;3.70;3.30;;;;;;;13.26;80.17;94644.72;5023616;28;20195;-80
2022/05/03 09:04:11;;;;;;;4.53;3.10;;;;;;;13.25;78.76;94654.34;5022480;28;20218;-80
2022/05/03 09:06:42;;;;;;;6.03;3.00;;;;;;;13.36;78.35;94655.34;5022994;28;20203;-79
2022/05/03 09:09:11;;;;;;;5.63;3.10;;;;;;;13.41;78.16;94655.44;5022142;28;20196;-80
2022/05/03 09:11:45;;;;;;;5.77;3.80;;;;;;;13.35;77.73;94659.78;5023737;28;20245;-80
2022/05/03 09:14:12;;;;;;;4.60;3.63;;;;;;;13.41;78.16;94661.44;5022770;28;20198;-80
2022/05/03 09:16:50;;;;;;;5.17;3.70;;;;;;;13.40;77.88;94654.63;5021946;28;20202;-79
2022/05/03 09:19:24;;;;;;;4.00;3.43;;;;;;;13.56;77.34;94653.84;5024035;28;20705;-79
2022/05/03 09:24:57;;;;;;;5.33;3.77;;;;;;;13.76;76.72;94663.06;5020568;28;20762;-78
2022/05/03 09:27:27;;;;;;;7.87;3.83;;;;;;;13.84;76.23;94658.22;5021903;28;20195;-80
2022/05/03 09:30:03;;;;;;;4.73;3.20;;;;;;;14.00;74.80;94654.03;5024319;28;20562;-80
2022/05/03 09:32:40;;;;;;;5.07;3.60;;;;;;;14.13;73.37;94654.50;5021014;28;20203;-80
2022/05/03 09:35:08;;;;;;;7.97;4.80;;;;;;;14.30;73.34;94651.88;5021357;28;20253;-80
2022/05/03 09:37:42;;;;;;;7.83;3.97;;;;;;;14.38;72.00;94645.44;5022690;28;20202;-80
2022/05/03 09:40:10;;;;;;;6.30;4.10;;;;;;;14.55;70.11;94652.22;5020296;28;20223;-80
2022/05/03 09:42:38;;;;;;;5.73;3.20;;;;;;;14.70;69.68;94647.19;5021391;28;20598;-80
2022/05/03 09:45:08;;;;;;;4.63;3.30;;;;;;;14.63;68.86;94643.19;5021069;28;20199;-79
2022/05/03 09:47:51;;;;;;;3.63;3.13;;;;;;;14.65;69.69;94635.88;5021353;28;20199;-80
2022/05/03 09:50:28;;;;;;;9.13;3.53;;;;;;;14.72;70.87;94647.72;5021797;28;20240;-80
2022/05/03 09:52:56;;;;;;;5.47;3.33;;;;;;;14.53;69.88;94653.50;5022931;28;20207;-80
2022/05/03 09:55:32;;;;;;;4.03;3.10;;;;;;;14.61;69.64;94647.84;5020253;28;20261;-81
2022/05/03 09:58:02;;;;;;;6.53;3.10;;;;;;;14.63;69.81;94645.78;5018844;28;20666;-79
2022/05/03 10:00:31;;;;;;;4.03;2.80;;;;;;;14.86;70.59;94652.63;5021563;28;20693;-82
2022/05/03 10:03:01;;;;;;;3.13;2.80;;;;;;;14.82;69.28;94644.44;5021222;28;20694;-80
2022/05/03 10:05:29;;;;;;;4.57;2.97;;;;;;;15.09;68.74;94632.19;5019835;28;20227;-81
2022/05/03 10:07:57;;;;;;;5.80;3.47;;;;;;;15.19;69.42;94647.22;5020734;28;20560;-82
2022/05/03 10:10:25;;;;;;;3.53;3.00;;;;;;;15.06;69.37;94648.41;5019719;28;20269;-81
2022/05/03 10:12:54;;;;;;;6.13;3.00;;;;;;;15.05;69.59;94646.00;5019277;28;20199;-82
2022/05/03 10:21:02;;;;;;;6.27;2.90;;;;;;;15.15;67.56;94646.13;5026385;28;20405;-81
2022/05/03 10:23:32;;;;;;;4.57;3.23;;;;;;;15.01;66.89;94631.81;5023100;28;20198;-81
2022/05/03 10:26:00;;;;;;;3.70;2.80;;;;;;;14.90;65.52;94638.78;5021761;28;20726;-80
2022/05/03 10:29:07;;;;;;;4.23;3.00;;;;;;;14.68;68.12;94638.81;5021742;28;20286;-79
2022/05/03 10:31:56;;;;;;;5.20;2.80;;;;;;;14.78;66.98;94631.06;5021438;28;20191;-80
2022/05/03 10:34:44;;;;;;;4.67;3.10;;;;;;;14.74;68.02;94629.97;5022454;28;20200;-80
2022/05/03 10:37:12;;;;;;;4.93;3.00;;;;;;;14.71;67.98;94627.84;5021031;28;20231;-80
2022/05/03 10:39:47;;;;;;;3.93;3.20;;;;;;;14.64;66.92;94634.28;5021179;28;20215;-81
2022/05/03 10:42:16;;;;;;;3.87;3.10;;;;;;;14.35;69.24;94635.47;5021948;28;20197;-80
2022/05/03 10:44:57;;;;;;;5.70;3.33;;;;;;;14.16;70.18;94635.72;5020070;28;20198;-81
2022/05/03 10:47:44;;;;;;;4.67;3.10;;;;;;;14.10;69.04;94635.88;5020330;28;20194;-80
2022/05/03 10:50:26;;;;;;;4.40;3.20;;;;;;;14.09;68.14;94644.75;5020821;28;20670;-81
2022/05/03 10:53:18;;;;;;;4.83;3.17;;;;;;;13.96;70.04;94629.41;5018396;28;20282;-80
2022/05/03 10:56:21;;;;;;;4.63;3.10;;;;;;;13.99;67.88;94639.38;5005889;28;20200;-80
2022/05/03 10:59:05;;;;;;;6.10;2.90;;;;;;;13.65;67.76;94641.19;5021932;28;20202;-78
2022/05/03 11:01:33;;;;;;;2.80;2.50;;;;;;;13.59;69.03;94626.50;5019305;28;20242;-80
2022/05/03 11:04:13;;;;;;;4.67;2.67;;;;;;;13.70;70.41;94624.81;5019924;28;20192;-81
2022/05/03 11:06:43;;;;;;;5.70;2.87;;;;;;;13.95;69.51;94630.44;5019498;28;20195;-80
2022/05/03 11:09:11;;;;;;;3.80;2.90;;;;;;;13.98;67.94;94632.56;5020971;28;20290;-78
2022/05/03 11:12:05;;;;;;;7.07;2.97;;;;;;;14.12;67.56;94621.53;5021099;28;20194;-80
2022/05/03 11:14:54;;;;;;;3.13;2.70;;;;;;;14.52;66.69;94626.56;5020920;28;20199;-80
2022/05/03 11:17:21;;;;;;;7.43;2.73;;;;;;;14.73;66.70;94630.22;5021882;28;20202;-80
2022/05/03 11:19:58;;;;;;;3.43;2.77;;;;;;;14.98;66.51;94632.34;5020364;28;20257;-79
2022/05/03 11:22:29;;;;;;;4.50;2.80;;;;;;;14.95;64.04;94628.38;5021520;28;20195;-79
2022/05/03 11:24:58;;;;;;;5.33;2.70;;;;;;;15.07;63.88;94623.00;5020152;28;20222;-80
2022/05/03 11:27:26;;;;;;;3.67;2.50;;;;;;;15.13;63.76;94628.03;5019692;28;20200;-81
2022/05/03 11:29:58;;;;;;;5.03;2.70;;;;;;;15.19;63.54;94631.50;5021742;28;20202;-80
2022/05/03 11:32:30;;;;;;;3.17;2.87;;;;;;;15.45;62.54;94622.06;5019395;28;20192;-80
2022/05/03 11:35:21;;;;;;;4.10;2.80;;;;;;;15.60;62.96;94625.66;5018833;28;20200;-80
2022/05/03 11:37:52;;;;;;;4.63;2.87;;;;;;;15.75;61.30;94617.13;5016440;28;20218;-79
2022/05/03 11:40:22;;;;;;;4.53;3.03;;;;;;;15.87;61.17;94623.75;5020773;28;20313;-79
2022/05/03 11:42:49;;;;;;;3.17;2.60;;;;;;;15.83;60.65;94614.81;5018679;28;20205;-80
2022/05/03 11:45:17;;;;;;;4.57;3.00;;;;;;;15.98;60.17;94618.59;5022335;28;20211;-80
2022/05/03 11:47:46;;;;;;;6.07;2.63;;;;;;;16.09;60.11;94600.06;5020068;28;20194;-80
2022/05/03 11:55:58;;;;;;;4.50;2.80;;;;;;;15.84;59.91;94605.13;5023290;28;20201;-82
2022/05/03 11:56:01;;;;;;;3.83;2.50;;;;;;;15.73;60.19;94601.63;5021843;28;20228;-81
2022/05/03 11:58:30;;;;;;;6.07;2.67;;;;;;;15.69;60.04;94603.19;5021458;28;20195;-82
2022/05/03 12:00:58;;;;;;;8.97;2.57;;;;;;;15.52;59.85;94593.88;5021247;28;20215;-82
2022/05/03 12:03:25;;;;;;;3.70;2.90;;;;;;;15.36;60.43;94611.25;5020639;28;20253;-81
2022/05/03 12:05:59;;;;;;;6.60;3.40;;;;;;;15.43;61.69;94600.56;5022885;28;20202;-81
2022/05/03 12:08:29;;;;;;;6.70;2.90;;;;;;;15.52;60.68;94591.25;5019179;28;20199;-81
2022/05/03 12:10:57;;;;;;;5.03;2.70;;;;;;;15.80;60.58;94590.94;5020883;28;20215;-81
2022/05/03 12:13:30;;;;;;;4.13;3.13;;;;;;;16.04;60.63;94589.53;5023420;28;20195;-79
2022/05/03 12:16:15;;;;;;;7.83;3.53;;;;;;;16.02;60.92;94585.56;5021658;28;20654;-80
2022/05/03 12:18:44;;;;;;;8.47;3.00;;;;;;;15.96;60.56;94591.84;5023451;28;20678;-79
2022/05/03 12:21:13;;;;;;;4.47;2.60;;;;;;;15.79;62.00;94589.34;5023893;28;20229;-79
2022/05/03 12:24:07;;;;;;;3.77;2.57;;;;;;;15.63;62.32;94592.91;5024373;28;20191;-78
2022/05/03 12:26:37;;;;;;;3.50;2.20;;;;;;;15.48;61.58;94605.88;5024449;28;20572;-78